createdAt,value
2018-07-23T00:01:21.551Z,98077.97
2018-07-23T00:03:50.918Z,98078.67
2018-07-23T00:06:19.684Z,98082.88
2018-07-23T00:08:49.160Z,98084.34
2018-07-23T00:11:17.836Z,98089.70
2018-07-23T00:13:46.657Z,98094.84
2018-07-23T00:16:22.683Z,98094.05
2018-07-23T00:18:51.474Z,98100.06
2018-07-23T00:21:20.256Z,98091.41
2018-07-23T00:23:54.210Z,98101.43
2018-07-23T00:26:22.959Z,98097.93
2018-07-23T00:28:51.748Z,98100.53
2018-07-23T00:31:20.641Z,98100.98
2018-07-23T00:33:49.381Z,98094.16
2018-07-23T00:36:18.394Z,98095.87
2018-07-23T00:44:49.528Z,98093.14
2018-07-23T00:47:18.235Z,98100.77
2018-07-23T00:49:46.965Z,98096.67
2018-07-23T00:52:15.745Z,98089.84
2018-07-23T00:54:44.448Z,98083.72
2018-07-23T00:57:13.565Z,98088.83
2018-07-23T00:59:42.910Z,98084.94
2018-07-23T01:02:11.843Z,98084.62
2018-07-23T01:04:40.384Z,98084.27
2018-07-23T01:07:09.614Z,98089.95
2018-07-23T01:09:38.458Z,98089.84
2018-07-23T01:12:07.419Z,98082.10
2018-07-23T01:14:36.181Z,98072.09
2018-07-23T01:17:05.463Z,98073.20
2018-07-23T01:19:34.685Z,98073.66
2018-07-23T01:22:03.334Z,98076.49
2018-07-23T01:24:32.183Z,98074.11
2018-07-23T01:27:01.078Z,98079.57
2018-07-23T01:29:29.813Z,98077.41
2018-07-23T01:31:58.550Z,98077.41
2018-07-23T01:34:27.929Z,98075.58
2018-07-23T01:36:56.944Z,98080.94
2018-07-23T01:39:25.565Z,98082.51
2018-07-23T01:41:54.690Z,98088.14
2018-07-23T01:44:23.908Z,98085.30
2018-07-23T01:46:52.870Z,98081.06
2018-07-23T01:49:21.492Z,98086.52
2018-07-23T01:51:50.239Z,98082.75
2018-07-23T01:54:18.899Z,98087.14
2018-07-23T01:56:47.560Z,98081.13
2018-07-23T01:59:16.414Z,98085.56
2018-07-23T02:01:45.565Z,98081.33
2018-07-23T02:04:14.440Z,98087.22
2018-07-23T02:06:43.100Z,98085.95
2018-07-23T02:09:13.353Z,98089.70
2018-07-23T02:11:42.500Z,98090.86
2018-07-23T02:14:11.884Z,98095.16
2018-07-23T02:16:41.895Z,98092.66
2018-07-23T02:19:11.142Z,98085.48
2018-07-23T02:21:40.040Z,98089.11
2018-07-23T02:24:10.189Z,98086.59
2018-07-23T02:26:39.744Z,98087.96
2018-07-23T02:29:09.116Z,98088.18
2018-07-23T02:31:38.209Z,98083.62
2018-07-23T02:34:07.632Z,98084.99
2018-07-23T02:36:36.379Z,98093.58
2018-07-23T02:39:08.399Z,98087.02
2018-07-23T02:41:37.161Z,98094.54
2018-07-23T02:44:06.221Z,98093.17
2018-07-23T02:46:35.463Z,98097.27
2018-07-23T02:49:04.226Z,98102.59
2018-07-23T02:51:33.007Z,98106.03
2018-07-23T02:54:02.171Z,98103.67
2018-07-23T02:56:30.844Z,98107.33
2018-07-23T02:58:59.884Z,98113.34
2018-07-23T03:01:28.829Z,98103.67
2018-07-23T03:03:58.032Z,98112.76
2018-07-23T03:06:28.645Z,98112.05
2018-07-23T03:08:57.630Z,98112.30
2018-07-23T03:11:26.816Z,98114.47
2018-07-23T03:13:55.944Z,98127.33
2018-07-23T03:16:24.860Z,98123.35
2018-07-23T03:18:54.374Z,98121.87
2018-07-23T03:21:23.274Z,98128.78
2018-07-23T03:23:52.826Z,98122.31
2018-07-23T03:26:21.569Z,98119.02
2018-07-23T03:28:50.326Z,98119.39
2018-07-23T03:31:19.820Z,98119.60
2018-07-23T03:33:48.826Z,98121.43
2018-07-23T03:36:17.592Z,98126.45
2018-07-23T03:38:46.322Z,98130.10
2018-07-23T03:41:15.125Z,98143.34
2018-07-23T03:43:44.675Z,98149.72
2018-07-23T03:46:13.667Z,98148.67
2018-07-23T03:48:42.451Z,98150.84
2018-07-23T03:51:11.319Z,98153.38
2018-07-23T03:53:39.904Z,98150.20
2018-07-23T03:56:08.747Z,98142.02
2018-07-23T03:58:39.131Z,98149.18
2018-07-23T04:01:07.886Z,98148.84
2018-07-23T04:03:36.638Z,98147.47
2018-07-23T04:06:05.371Z,98152.12
2018-07-23T04:08:34.085Z,98155.20
2018-07-23T04:11:02.776Z,98151.66
2018-07-23T04:13:31.417Z,98153.59
2018-07-23T04:16:00.276Z,98159.75
2018-07-23T04:18:29.907Z,98159.00
2018-07-23T04:20:58.754Z,98156.14
2018-07-23T04:23:27.433Z,98156.28
2018-07-23T04:25:56.380Z,98165.16
2018-07-23T04:28:25.202Z,98160.03
2018-07-23T04:30:54.056Z,98164.98
2018-07-23T04:33:23.020Z,98163.73
2018-07-23T04:35:51.685Z,98172.75
2018-07-23T04:38:20.626Z,98179.48
2018-07-23T04:40:49.681Z,98181.09
2018-07-23T04:43:18.383Z,98180.28
2018-07-23T04:45:47.140Z,98182.20
2018-07-23T04:48:15.855Z,98185.28
2018-07-23T04:50:44.974Z,98187.11
2018-07-23T04:53:14.100Z,98183.26
2018-07-23T04:55:42.885Z,98187.02
2018-07-23T04:58:11.772Z,98187.22
2018-07-23T05:00:41.401Z,98190.66
2018-07-23T05:03:09.973Z,98195.92
2018-07-23T05:05:39.314Z,98197.19
2018-07-23T05:08:08.490Z,98200.49
2018-07-23T05:10:37.434Z,98196.85
2018-07-23T05:13:06.846Z,98194.48
2018-07-23T05:15:35.639Z,98198.23
2018-07-23T05:18:04.310Z,98190.83
2018-07-23T05:20:33.130Z,98199.84
2018-07-23T05:23:01.895Z,98201.45
2018-07-23T05:25:30.710Z,98200.41
2018-07-23T05:28:00.030Z,98204.64
2018-07-23T05:30:28.811Z,98203.63
2018-07-23T05:32:57.487Z,98198.73
2018-07-23T05:35:26.275Z,98206.94
2018-07-23T05:37:55.189Z,98213.32
2018-07-23T05:40:23.996Z,98214.12
2018-07-23T05:42:52.942Z,98213.22
2018-07-23T05:45:21.607Z,98215.04
2018-07-23T05:47:50.351Z,98220.41
2018-07-23T05:50:19.069Z,98222.37
2018-07-23T05:52:47.655Z,98224.08
2018-07-23T05:55:16.414Z,98220.30
2018-07-23T05:57:45.096Z,98225.66
2018-07-23T06:00:14.565Z,98226.71
2018-07-23T06:02:43.561Z,98223.28
2018-07-23T06:05:12.592Z,98222.75
2018-07-23T06:07:41.200Z,98229.37
2018-07-23T06:10:09.935Z,98232.91
2018-07-23T06:12:39.027Z,98237.78
2018-07-23T06:15:08.921Z,98239.50
2018-07-23T06:17:37.987Z,98235.53
2018-07-23T06:20:08.030Z,98238.27
2018-07-23T06:22:37.001Z,98242.93
2018-07-23T06:25:06.925Z,98246.80
2018-07-23T06:27:35.680Z,98247.37
2018-07-23T06:30:05.419Z,98244.66
2018-07-23T06:32:34.853Z,98242.81
2018-07-23T06:35:03.522Z,98248.30
2018-07-23T06:37:32.335Z,98246.09
2018-07-23T06:40:01.015Z,98250.09
2018-07-23T06:42:30.376Z,98248.51
2018-07-23T06:44:59.625Z,98249.05
2018-07-23T06:47:28.591Z,98256.45
2018-07-23T06:49:58.092Z,98256.91
2018-07-23T06:52:27.027Z,98255.90
2018-07-23T06:54:55.802Z,98255.31
2018-07-23T06:57:24.483Z,98258.02
2018-07-23T06:59:53.352Z,98262.05
2018-07-23T07:02:21.999Z,98251.86
2018-07-23T07:04:50.976Z,98253.41
2018-07-23T07:07:19.626Z,98255.82
2018-07-23T07:09:48.497Z,98263.61
2018-07-23T07:12:17.531Z,98264.11
2018-07-23T07:14:46.407Z,98269.51
2018-07-23T07:17:15.251Z,98275.86
2018-07-23T07:19:44.085Z,98268.77
2018-07-23T07:22:12.902Z,98273.64
2018-07-23T07:24:42.534Z,98269.58
2018-07-23T07:27:11.290Z,98267.33
2018-07-23T07:29:40.179Z,98267.17
2018-07-23T07:32:08.872Z,98263.72
2018-07-23T07:34:37.533Z,98266.85
2018-07-23T07:37:06.317Z,98269.38
2018-07-23T07:39:35.342Z,98269.08
2018-07-23T07:42:04.510Z,98272.70
2018-07-23T07:44:33.777Z,98271.05
2018-07-23T07:47:03.370Z,98271.77
2018-07-23T07:49:33.214Z,98265.72
2018-07-23T07:52:01.830Z,98266.24
2018-07-23T07:54:30.797Z,98269.15
2018-07-23T07:57:00.478Z,98265.59
2018-07-23T07:59:29.152Z,98268.55
2018-07-23T08:01:58.281Z,98265.23
2018-07-23T08:04:27.118Z,98267.87
2018-07-23T08:06:55.863Z,98269.64
2018-07-23T08:09:25.468Z,98272.34
2018-07-23T08:11:54.381Z,98265.09
2018-07-23T08:14:23.584Z,98262.94
2018-07-23T08:16:53.266Z,98270.24
2018-07-23T08:19:22.008Z,98267.64
2018-07-23T08:21:51.138Z,98276.86
2018-07-23T08:24:20.032Z,98280.42
2018-07-23T08:26:48.764Z,98281.39
2018-07-23T08:29:17.593Z,98277.63
2018-07-23T08:31:47.393Z,98277.19
2018-07-23T08:34:16.011Z,98283.25
2018-07-23T08:36:44.851Z,98281.06
2018-07-23T08:39:13.474Z,98291.27
2018-07-23T08:41:42.123Z,98290.11
2018-07-23T08:44:11.244Z,98283.14
2018-07-23T08:46:40.117Z,98290.03
2018-07-23T08:49:08.932Z,98295.58
2018-07-23T08:51:37.843Z,98293.77
2018-07-23T08:54:06.601Z,98299.48
2018-07-23T08:56:35.442Z,98296.22
2018-07-23T08:59:04.287Z,98297.25
2018-07-23T09:01:33.843Z,98298.25
2018-07-23T09:04:02.656Z,98298.00
2018-07-23T09:06:31.480Z,98303.48
2018-07-23T09:09:00.571Z,98302.22
2018-07-23T09:11:30.713Z,98306.67
2018-07-23T09:13:59.757Z,98305.42
2018-07-23T09:16:28.376Z,98301.81
2018-07-23T09:18:57.358Z,98306.59
2018-07-23T09:21:26.292Z,98299.90
2018-07-23T09:23:55.942Z,98293.73
2018-07-23T09:26:24.691Z,98298.38
2018-07-23T09:28:53.332Z,98306.09
2018-07-23T09:31:22.256Z,98303.61
2018-07-23T09:33:51.811Z,98300.71
2018-07-23T09:36:21.071Z,98295.97
2018-07-23T09:38:50.837Z,98291.66
2018-07-23T09:41:20.407Z,98294.14
2018-07-23T09:43:49.281Z,98296.67
2018-07-23T09:46:18.108Z,98293.42
2018-07-23T09:48:47.012Z,98294.45
2018-07-23T09:51:15.882Z,98292.40
2018-07-23T09:53:44.587Z,98289.98
2018-07-23T09:56:13.463Z,98295.61
2018-07-23T09:58:42.266Z,98290.75
2018-07-23T10:01:12.365Z,98289.81
2018-07-23T10:03:42.062Z,98293.95
2018-07-23T10:06:10.972Z,98283.70
2018-07-23T10:08:39.930Z,98283.88
2018-07-23T10:11:09.167Z,98289.05
2018-07-23T10:13:38.616Z,98288.66
2018-07-23T10:16:07.387Z,98282.17
2018-07-23T10:18:36.077Z,98284.34
2018-07-23T10:21:04.927Z,98274.02
2018-07-23T10:23:34.351Z,98276.63
2018-07-23T10:26:03.123Z,98272.59
2018-07-23T10:28:31.968Z,98278.16
2018-07-23T10:31:00.906Z,98275.38
2018-07-23T10:33:30.059Z,98279.94
2018-07-23T10:35:58.677Z,98271.58
2018-07-23T10:38:27.615Z,98271.19
2018-07-23T10:40:57.038Z,98268.73
2018-07-23T10:43:25.770Z,98262.73
2018-07-23T10:45:55.593Z,98263.64
2018-07-23T10:48:24.553Z,98260.97
2018-07-23T10:50:53.514Z,98259.37
2018-07-23T10:53:22.196Z,98250.44
2018-07-23T10:55:50.877Z,98250.25
2018-07-23T10:58:19.757Z,98248.70
2018-07-23T11:00:48.736Z,98251.97
2018-07-23T11:03:18.185Z,98249.67
2018-07-23T11:05:47.061Z,98248.13
2018-07-23T11:08:15.711Z,98246.68
2018-07-23T11:10:44.726Z,98244.78
2018-07-23T11:13:13.931Z,98240.72
2018-07-23T11:15:42.732Z,98239.27
2018-07-23T11:18:11.539Z,98239.64
2018-07-23T11:20:40.516Z,98238.31
2018-07-23T11:23:09.464Z,98236.73
2018-07-23T11:25:39.408Z,98231.80
2018-07-23T11:28:07.299Z,98229.59
2018-07-23T11:30:36.393Z,98224.61
2018-07-23T11:33:05.579Z,98227.69
2018-07-23T11:35:34.312Z,98225.52
2018-07-23T11:38:03.093Z,98220.09
2018-07-23T11:40:32.267Z,98217.91
2018-07-23T11:43:01.923Z,98222.23
2018-07-23T11:45:31.103Z,98214.73
2018-07-23T11:48:00.142Z,98210.60
2018-07-23T11:50:28.949Z,98206.30
2018-07-23T11:52:57.699Z,98203.75
2018-07-23T11:55:26.739Z,98210.70
2018-07-23T11:57:55.459Z,98204.40
2018-07-23T12:00:24.279Z,98194.70
2018-07-23T12:02:54.438Z,98198.62
2018-07-23T12:05:23.282Z,98196.70
2018-07-23T12:07:52.223Z,98196.95
2018-07-23T12:10:21.037Z,98195.80
2018-07-23T12:12:50.554Z,98201.80
2018-07-23T12:15:19.548Z,98197.89
2018-07-23T12:17:48.527Z,98195.02
2018-07-23T12:20:17.997Z,98199.51
2018-07-23T12:22:48.192Z,98192.32
2018-07-23T12:25:17.123Z,98184.16
2018-07-23T12:27:45.891Z,98189.12
2018-07-23T12:30:14.515Z,98183.81
2018-07-23T12:32:44.022Z,98185.39
2018-07-23T12:35:12.678Z,98177.66
2018-07-23T12:37:41.618Z,98177.75
2018-07-23T12:40:10.732Z,98180.47
2018-07-23T12:42:39.555Z,98183.62
2018-07-23T12:45:08.287Z,98177.48
2018-07-23T12:47:37.564Z,98172.16
2018-07-23T12:50:06.238Z,98176.47
2018-07-23T12:52:34.936Z,98174.16
2018-07-23T12:55:04.148Z,98175.56
2018-07-23T12:57:32.784Z,98175.28
2018-07-23T13:00:01.626Z,98178.06
2018-07-23T13:02:30.279Z,98181.46
2018-07-23T13:04:59.037Z,98179.11
2018-07-23T13:07:28.690Z,98177.11
2018-07-23T13:09:57.492Z,98176.16
2018-07-23T13:12:26.140Z,98180.68
2018-07-23T13:14:54.968Z,98176.75
2018-07-23T13:17:24.298Z,98172.10
2018-07-23T13:19:53.128Z,98180.54
2018-07-23T13:22:21.766Z,98173.95
2018-07-23T13:24:50.533Z,98177.45
2018-07-23T13:27:19.143Z,98175.30
2018-07-23T13:29:47.951Z,98178.51
2018-07-23T13:32:16.548Z,98166.69
2018-07-23T13:34:45.368Z,98168.95
2018-07-23T13:37:14.074Z,98168.11
2018-07-23T13:39:42.687Z,98166.35
2018-07-23T13:42:11.493Z,98156.98
2018-07-23T13:44:41.115Z,98158.98
2018-07-23T13:47:09.959Z,98158.21
2018-07-23T13:49:39.294Z,98158.92
2018-07-23T13:52:08.475Z,98161.80
2018-07-23T13:54:37.240Z,98153.48
2018-07-23T13:57:05.982Z,98151.83
2018-07-23T13:59:35.077Z,98150.63
2018-07-23T14:02:04.430Z,98154.30
2018-07-23T14:04:33.813Z,98151.68
2018-07-23T14:07:02.794Z,98156.98
2018-07-23T14:09:31.508Z,98157.50
2018-07-23T14:12:00.195Z,98148.42
2018-07-23T14:14:28.916Z,98146.86
2018-07-23T14:16:57.722Z,98141.72
2018-07-23T14:19:26.492Z,98146.27
2018-07-23T14:21:55.620Z,98141.84
2018-07-23T14:24:24.405Z,98139.84
2018-07-23T14:26:53.038Z,98134.80
2018-07-23T14:29:21.930Z,98133.08
2018-07-23T14:31:50.545Z,98126.42
2018-07-23T14:34:19.773Z,98129.31
2018-07-23T14:36:48.569Z,98124.05
2018-07-23T14:39:17.368Z,98127.80
2018-07-23T14:41:46.019Z,98120.90
2018-07-23T14:44:14.772Z,98117.16
2018-07-23T14:46:43.484Z,98113.88
2018-07-23T14:49:12.763Z,98117.97
2018-07-23T14:51:41.514Z,98111.01
2018-07-23T14:54:10.209Z,98109.78
2018-07-23T14:56:38.853Z,98110.03
2018-07-23T14:59:07.544Z,98106.25
2018-07-23T15:01:36.303Z,98105.73
2018-07-23T15:04:05.089Z,98102.63
2018-07-23T15:06:33.813Z,98103.32
2018-07-23T15:09:02.437Z,98097.61
2018-07-23T15:11:31.024Z,98094.00
2018-07-23T15:13:59.959Z,98095.69
2018-07-23T15:16:29.305Z,98089.61
2018-07-23T15:18:57.989Z,98092.90
2018-07-23T15:21:26.689Z,98093.65
2018-07-23T15:23:55.327Z,98092.52
2018-07-23T15:26:24.145Z,98091.20
2018-07-23T15:28:53.049Z,98082.77
2018-07-23T15:31:21.919Z,98091.36
2018-07-23T15:33:50.964Z,98089.79
2018-07-23T15:36:19.766Z,98089.69
2018-07-23T15:38:49.138Z,98089.22
2018-07-23T15:41:17.811Z,98084.19
2018-07-23T15:43:46.674Z,98088.63
2018-07-23T15:46:15.761Z,98089.16
2018-07-23T15:48:45.026Z,98092.47
2018-07-23T15:51:13.651Z,98093.39
2018-07-23T15:53:42.953Z,98089.89
2018-07-23T15:56:11.679Z,98087.67
2018-07-23T15:58:40.448Z,98088.13
2018-07-23T16:01:09.453Z,98089.89
2018-07-23T16:03:38.109Z,98084.77
2018-07-23T16:06:06.890Z,98084.47
2018-07-23T16:08:35.545Z,98086.95
2018-07-23T16:11:04.344Z,98075.59
2018-07-23T16:13:33.235Z,98077.09
2018-07-23T16:16:02.960Z,98083.47
2018-07-23T16:18:31.746Z,98077.58
2018-07-23T16:21:01.511Z,98085.93
2018-07-23T16:23:30.447Z,98078.44
2018-07-23T16:25:59.890Z,98079.63
2018-07-23T16:28:28.652Z,98084.16
2018-07-23T16:30:57.303Z,98073.20
2018-07-23T16:33:26.075Z,98074.97
2018-07-23T16:35:54.853Z,98070.89
2018-07-23T16:38:23.855Z,98074.11
2018-07-23T16:40:53.361Z,98072.72
2018-07-23T16:43:22.393Z,98066.56
2018-07-23T16:45:57.697Z,98075.50
2018-07-23T16:48:26.624Z,98064.66
2018-07-23T16:50:55.977Z,98073.20
2018-07-23T16:53:25.293Z,98068.25
2018-07-23T16:55:53.919Z,98073.02
2018-07-23T16:58:22.534Z,98073.48
2018-07-23T17:00:51.322Z,98070.91
2018-07-23T17:03:20.326Z,98069.36
2018-07-23T17:05:49.478Z,98077.57
2018-07-23T17:08:18.500Z,98073.23
2018-07-23T17:10:47.405Z,98075.26
2018-07-23T17:13:16.235Z,98079.22
2018-07-23T17:15:45.204Z,98083.42
2018-07-23T17:18:13.998Z,98077.88
2018-07-23T17:20:42.635Z,98081.52
2018-07-23T17:23:11.230Z,98077.02
2018-07-23T17:25:40.035Z,98079.69
2018-07-23T17:28:09.498Z,98086.47
2018-07-23T17:30:39.551Z,98086.09
2018-07-23T17:33:08.994Z,98084.02
2018-07-23T17:35:37.700Z,98085.45
2018-07-23T17:38:06.331Z,98089.39
2018-07-23T17:40:34.934Z,98090.20
2018-07-23T17:43:03.633Z,98085.28
2018-07-23T17:45:32.480Z,98083.71
2018-07-23T17:48:01.973Z,98087.67
2018-07-23T17:50:31.385Z,98091.87
2018-07-23T17:53:00.979Z,98090.48
2018-07-23T17:55:29.735Z,98089.27
2018-07-23T17:57:58.805Z,98084.72
2018-07-23T18:00:27.750Z,98089.64
2018-07-23T18:02:56.420Z,98093.42
2018-07-23T18:05:26.021Z,98086.88
2018-07-23T18:07:54.833Z,98092.80
2018-07-23T18:10:23.445Z,98090.57
2018-07-23T18:12:52.335Z,98088.37
2018-07-23T18:15:21.240Z,98097.63
2018-07-23T18:17:49.931Z,98097.41
2018-07-23T18:20:18.904Z,98095.20
2018-07-23T18:22:47.660Z,98094.80
2018-07-23T18:25:16.456Z,98096.14
2018-07-23T18:27:45.931Z,98102.62
2018-07-23T18:30:14.978Z,98101.78
2018-07-23T18:32:43.833Z,98101.88
2018-07-23T18:35:12.656Z,98109.34
2018-07-23T18:37:41.782Z,98109.66
2018-07-23T18:40:10.831Z,98111.14
2018-07-23T18:42:40.417Z,98114.64
2018-07-23T18:45:09.456Z,98115.36
2018-07-23T18:47:38.539Z,98119.84
2018-07-23T18:50:07.810Z,98119.73
2018-07-23T18:52:36.925Z,98125.58
2018-07-23T18:55:06.165Z,98115.03
2018-07-23T18:57:35.346Z,98127.52
2018-07-23T19:00:04.403Z,98128.41
2018-07-23T19:02:33.106Z,98124.82
2018-07-23T19:05:02.660Z,98138.30
2018-07-23T19:07:32.379Z,98136.98
2018-07-23T19:10:01.778Z,98132.02
2018-07-23T19:12:30.571Z,98144.20
2018-07-23T19:15:00.129Z,98139.46
2018-07-23T19:17:29.494Z,98146.93
2018-07-23T19:19:58.265Z,98151.73
2018-07-23T19:22:26.979Z,98150.58
2018-07-23T19:24:55.666Z,98151.95
2018-07-23T19:27:24.340Z,98155.84
2018-07-23T19:29:53.315Z,98154.47
2018-07-23T19:32:22.922Z,98151.02
2018-07-23T19:34:51.474Z,98158.40
2018-07-23T19:37:20.127Z,98164.81
2018-07-23T19:39:48.787Z,98163.81
2018-07-23T19:42:17.532Z,98171.72
2018-07-23T19:44:46.114Z,98172.39
2018-07-23T19:47:14.736Z,98173.06
2018-07-23T19:49:43.375Z,98184.02
2018-07-23T19:52:12.119Z,98181.98
2018-07-23T19:54:40.915Z,98176.36
2018-07-23T19:57:09.870Z,98181.38
2018-07-23T19:59:38.474Z,98183.92
2018-07-23T20:02:07.384Z,98185.87
2018-07-23T20:04:36.027Z,98181.69
2018-07-23T20:07:05.380Z,98189.70
2018-07-23T20:09:34.129Z,98183.42
2018-07-23T20:12:03.335Z,98184.34
2018-07-23T20:14:32.411Z,98188.63
2018-07-23T20:17:01.517Z,98183.62
2018-07-23T20:19:30.170Z,98186.10
2018-07-23T20:21:58.930Z,98182.97
2018-07-23T20:24:27.607Z,98184.84
2018-07-23T20:26:56.368Z,98183.55
2018-07-23T20:29:25.021Z,98183.86
2018-07-23T20:31:54.656Z,98183.00
2018-07-23T20:34:23.432Z,98180.89
2018-07-23T20:36:52.665Z,98182.39
2018-07-23T20:39:21.489Z,98174.86
2018-07-23T20:41:50.264Z,98179.70
2018-07-23T20:44:19.181Z,98178.58
2018-07-23T20:46:47.781Z,98174.53
2018-07-23T20:49:16.410Z,98172.83
2018-07-23T20:51:45.696Z,98177.28
2018-07-23T20:54:14.616Z,98175.70
2018-07-23T20:56:43.451Z,98176.33
2018-07-23T20:59:12.047Z,98176.22
2018-07-23T21:01:40.802Z,98176.72
2018-07-23T21:04:09.598Z,98173.66
2018-07-23T21:06:38.371Z,98175.97
2018-07-23T21:09:08.370Z,98169.83
2018-07-23T21:11:37.301Z,98175.05
2018-07-23T21:14:06.245Z,98176.78
2018-07-23T21:16:35.334Z,98177.75
2018-07-23T21:19:04.956Z,98182.44
2018-07-23T21:21:33.901Z,98179.90
2018-07-23T21:24:02.997Z,98177.56
2018-07-23T21:26:31.750Z,98178.38
2018-07-23T21:29:00.451Z,98178.17
2018-07-23T21:31:29.300Z,98176.84
2018-07-23T21:33:57.961Z,98176.69
2018-07-23T21:36:26.954Z,98173.50
2018-07-23T21:38:55.617Z,98178.33
2018-07-23T21:41:24.513Z,98180.95
2018-07-23T21:43:53.160Z,98180.39
2018-07-23T21:46:22.185Z,98182.32
2018-07-23T21:48:50.784Z,98177.44
2018-07-23T21:51:19.456Z,98179.73
2018-07-23T21:53:48.041Z,98178.36
2018-07-23T21:56:16.756Z,98180.21
2018-07-23T21:58:45.321Z,98181.02
2018-07-23T22:01:14.093Z,98177.83
2018-07-23T22:03:43.651Z,98177.27
2018-07-23T22:06:13.028Z,98175.53
2018-07-23T22:08:41.733Z,98179.22
2018-07-23T22:11:10.420Z,98180.50
2018-07-23T22:13:39.034Z,98176.72
2018-07-23T22:16:07.927Z,98180.96
2018-07-23T22:18:36.695Z,98185.77
2018-07-23T22:21:06.592Z,98181.27
2018-07-23T22:23:35.331Z,98175.80
2018-07-23T22:26:04.635Z,98182.99
2018-07-23T22:28:37.859Z,98176.02
2018-07-23T22:31:07.057Z,98174.42
2018-07-23T22:33:35.960Z,98173.16
2018-07-23T22:36:04.782Z,98173.99
2018-07-23T22:38:33.657Z,98163.48
2018-07-23T22:41:03.396Z,98164.84
2018-07-23T22:43:32.248Z,98167.02
2018-07-23T22:46:01.500Z,98162.45
2018-07-23T22:48:30.180Z,98170.20
2018-07-23T22:50:58.876Z,98152.54
2018-07-23T22:53:27.776Z,98155.16
2018-07-23T22:55:56.535Z,98153.45
2018-07-23T22:58:25.384Z,98155.06
2018-07-23T23:00:54.156Z,98158.02
2018-07-23T23:03:23.159Z,98161.00
2018-07-23T23:05:51.856Z,98153.43
2018-07-23T23:08:21.501Z,98155.02
2018-07-23T23:10:50.499Z,98149.78
2018-07-23T23:13:19.320Z,98142.49
2018-07-23T23:15:48.172Z,98149.08
2018-07-23T23:18:17.045Z,98146.94
2018-07-23T23:20:45.703Z,98151.61
2018-07-23T23:23:14.783Z,98150.45
2018-07-23T23:25:43.597Z,98151.36
2018-07-23T23:28:12.486Z,98145.75
2018-07-23T23:30:41.464Z,98143.12
2018-07-23T23:33:10.184Z,98151.77
2018-07-23T23:35:39.006Z,98150.20
2018-07-23T23:38:08.190Z,98151.45
2018-07-23T23:40:37.670Z,98149.39
2018-07-23T23:43:06.737Z,98149.28
2018-07-23T23:45:35.526Z,98145.05
2018-07-23T23:48:04.179Z,98140.13
2018-07-23T23:50:32.744Z,98141.94
2018-07-23T23:53:01.299Z,98144.56
2018-07-23T23:55:29.872Z,98135.66
2018-07-23T23:57:58.422Z,98136.93
